This is the latest recevied weather packets stored in our database for station/object KC9EGS. If no packets are shown the sender has not sent any weather packets the latest 1 day(s).
| Time | Temp. | Humidity | Pressure | Rain* | Wind** | Luminosity | Snow |
|---|---|---|---|---|---|---|---|
| 1836274500 | 17.22° C | 95% | 1013.4 hPa | 0 mm | 0 m/s | - | - |
| 1836274415 | 17.22° C | 95% | 1013.3 hPa | 0 mm | 0 m/s | - | - |
| 1836274352 | 17.22° C | 95% | 1013.3 hPa | 0 mm | 0 m/s | - | - |
| 1836274264 | 17.22° C | 94% | 1013.4 hPa | 0 mm | 0 m/s | - | - |
| 1778040324 | 2.78° C | 63% | 1007.2 hPa | 0 mm | 0 m/s | - | - |
| 1778040106 | 2.78° C | 63% | 1007.2 hPa | 0 mm | 0 m/s | - | - |
| 1778039207 | 3.33° C | 60% | 1007.2 hPa | 0 mm | 0 m/s | - | - |
| 1778039124 | 3.33° C | 60% | 1007.2 hPa | 0 mm | 0 m/s | - | - |
| 1778038524 | 3.33° C | 59% | 1007.1 hPa | 0 mm | 0 m/s | - | - |
| 1778038305 | 3.33° C | 58% | 1007.1 hPa | 0 mm | 0 m/s | - | - |
| 1778037923 | 3.89° C | 59% | 1006.9 hPa | 0 mm | 0 m/s | - | - |
| 1778037406 | 3.89° C | 58% | 1006.9 hPa | 0 mm | 0 m/s | - | - |
| 1778037324 | 3.89° C | 58% | 1006.9 hPa | 0 mm | 0 m/s | - | - |
| 1778036724 | 4.44° C | 56% | 1006.8 hPa | 0 mm | 0 m/s | - | - |
| 1778036507 | 4.44° C | 56% | 1006.8 hPa | 0 mm | 0 m/s | - | - |
| 1778036127 | 4.44° C | 55% | 1006.7 hPa | 0 mm | 0 m/s | - | - |
| 1778035607 | 5° C | 54% | 1006.7 hPa | 0 mm | 0 m/s | - | - |
| 1778035524 | 5° C | 54% | 1006.7 hPa | 0 mm | 0 m/s | - | - |
| 1778034707 | 5° C | 54% | 1006.3 hPa | 0 mm | 0 m/s | - | - |
| 1778034322 | 5° C | 54% | 1006.2 hPa | 0 mm | 0 m/s | - | - |
| 1778033807 | 5° C | 54% | 1006.2 hPa | 0 mm | 0 m/s | - | - |
| 1778033723 | 5° C | 54% | 1006.2 hPa | 0 mm | 0 m/s | - | - |
| 1778033124 | 5° C | 52% | 1006.2 hPa | 0 mm | 0 m/s | - | - |
| 1778032906 | 5° C | 52% | 1006.2 hPa | 0 mm | 0 m/s | - | - |
| 1778032524 | 5° C | 51% | 1006 hPa | 0 mm | 0 m/s | - | - |
* Rain latest hour (hover to see other rain measurements)
** Current wind speed in m/s (hover to see current wind gust speed)